Estación Meteorológica Peña el Pijo (Robertgarden) [ 01/30/23 14:31:58 CET ]

Fecha Hora Presion(HPa) Temp (°C) Humedad % Rocio (°C) Viento ( m/s) Direccion Lluvia 1Hora(mm) Lluvia 24H(mm) LLuvia Total(mm)
2010-Aug-31 01:01:14 1012.300 16.7 74 12.0         152.29
2010-Aug-31 02:01:16 1012.300 17.4 75 12.9         152.29
2010-Aug-31 03:01:16 1012.000 19.1 81 15.8         152.29
2010-Aug-31 04:01:17 1011.900 19.3 80 15.8         152.29
2010-Aug-31 05:01:15 1011.400 18.4 81 15.1         152.29
2010-Aug-31 06:01:18 1011.000 16.4 83 13.5         152.29
2010-Aug-31 07:01:17 1011.000 15.3 85 12.8         152.29
2010-Aug-31 08:01:12 1011.300 14.9 87 12.8         152.29
2010-Aug-31 09:01:17 1011.500 18.1 83 15.2         152.29
2010-Aug-31 10:01:17 1011.600 22.7 69 16.8         152.29
2010-Aug-31 11:01:16 1011.600 26.1 55 16.3         152.29
2010-Aug-31 12:01:14 1011.500 29.1 46 16.3         152.29
2010-Aug-31 13:01:16 1011.300 29.7 42 15.4         152.29
2010-Aug-31 14:01:20 1010.800 32.4 36 15.3         152.29
2010-Aug-31 15:01:17 1010.400 32.6 32 13.7         152.29
2010-Aug-31 16:01:17 1009.400 32.0 34 14.1         152.29
2010-Aug-31 17:01:31 1009.400 29.4 38 13.6 1.5 NE     152.29
2010-Aug-31 18:01:34 1009.400 27.8 41 13.4         152.29
2010-Aug-31 19:01:36 1009.600 25.2 50 14.1         152.29
2010-Aug-31 20:01:39 1009.300 23.4 58 14.6         152.29
2010-Aug-31 21:01:20 1009.500 22.3 63 14.9         152.29
2010-Aug-31 22:01:15 1009.900 21.1 69 15.2         152.29
2010-Aug-31 23:01:16 1010.400 20.1 74 15.3         152.29

Temperatura Máxima:32°    Temperatura Mínima:14°
Presión Máxima:1012.300 Hpa    Presión Mínima:1009.300 Hpa


Volver